Burden Field-(Rabbit Run) Airport

METAR KFHR TAF CYWH
8 °C
°C
-
°C
33m
Âge
21:49:02
LT
20:49
UTC
0 ft

1.000

2.000

3.000

4.000

5.000

BKN 1.400
OVC 2.100
MVFR
<?= Yii::t('app', 'Wind direction') ?> <?= Yii::t('app', 'of'); ?>
360°
17:02
Coucher de soleil
82%
Humidité
Cisaillement du vent
Fermé/neige
Portée visuelle RWY
Condition RWY
Visibilité vert.
Visibilité min.
CAVOK
Tendance
Correction
Rapport spécial
30,25 inHg
QNH
METAR KFHR 272016Z AUTO 36006KT 10SM BKN014 OVC021 08/05 A3025 RMK AO2 T00780050
Couvert
0 kt
0 kt
12:00
MVFR
3 kt
13:00
VFR
3 kt
14:00
VFR
3 kt
15:00
VFR
3 kt
16:00
VFR
3 kt
17:00
VFR
3 kt
18:00
VFR
3 kt
10 mi
Vue
1.400 ft
Base cloud
6 kt
Vent
metar-taf.com/61WA

Metar-Taf.com

Décodeur visuel

Nous et des tiers suivons ton comportement Internet sur notre site Web à l'aide de cookies. Si tu continues, nous supposons que tu es d'accord avec notre Politique en matière de cookies.